sensor_id;sensor_type;location;lat;lon;timestamp;temperature;humidity
11538;DHT22;50159;49.426;11.182;2023-04-06T00:00:53;-0.30;94.70
11538;DHT22;50159;49.426;11.182;2023-04-06T00:03:20;-0.30;95.00
11538;DHT22;50159;49.426;11.182;2023-04-06T00:05:48;-0.40;95.20
11538;DHT22;50159;49.426;11.182;2023-04-06T00:08:15;-0.40;95.40
11538;DHT22;50159;49.426;11.182;2023-04-06T00:10:42;-0.40;95.10
11538;DHT22;50159;49.426;11.182;2023-04-06T00:13:09;-0.40;94.90
11538;DHT22;50159;49.426;11.182;2023-04-06T00:15:36;-0.50;95.20
11538;DHT22;50159;49.426;11.182;2023-04-06T00:18:03;-0.50;95.40
11538;DHT22;50159;49.426;11.182;2023-04-06T00:20:30;-0.50;95.60
11538;DHT22;50159;49.426;11.182;2023-04-06T00:22:57;-0.50;95.50
11538;DHT22;50159;49.426;11.182;2023-04-06T00:25:24;-0.50;95.40
11538;DHT22;50159;49.426;11.182;2023-04-06T00:27:52;-0.50;95.40
11538;DHT22;50159;49.426;11.182;2023-04-06T00:30:19;-0.50;95.80
11538;DHT22;50159;49.426;11.182;2023-04-06T00:32:46;-0.50;96.00
11538;DHT22;50159;49.426;11.182;2023-04-06T00:35:13;-0.60;95.50
11538;DHT22;50159;49.426;11.182;2023-04-06T00:37:41;-0.60;94.90
11538;DHT22;50159;49.426;11.182;2023-04-06T00:40:08;-0.70;95.20
11538;DHT22;50159;49.426;11.182;2023-04-06T00:42:36;-0.60;95.70
11538;DHT22;50159;49.426;11.182;2023-04-06T00:45:03;-0.60;95.60
11538;DHT22;50159;49.426;11.182;2023-04-06T00:47:31;-0.70;94.90
11538;DHT22;50159;49.426;11.182;2023-04-06T00:49:57;-0.70;94.60
11538;DHT22;50159;49.426;11.182;2023-04-06T00:52:24;-0.80;94.50
11538;DHT22;50159;49.426;11.182;2023-04-06T00:54:51;-0.80;94.70
11538;DHT22;50159;49.426;11.182;2023-04-06T00:57:19;-0.80;94.60
11538;DHT22;50159;49.426;11.182;2023-04-06T00:59:46;-0.90;94.70
11538;DHT22;50159;49.426;11.182;2023-04-06T01:02:13;-0.90;95.50
11538;DHT22;50159;49.426;11.182;2023-04-06T01:04:40;-0.90;95.60
11538;DHT22;50159;49.426;11.182;2023-04-06T01:07:06;-0.90;95.90
11538;DHT22;50159;49.426;11.182;2023-04-06T01:09:33;-0.90;96.30
11538;DHT22;50159;49.426;11.182;2023-04-06T01:12:00;-0.90;95.90
11538;DHT22;50159;49.426;11.182;2023-04-06T01:14:28;-0.90;95.90
11538;DHT22;50159;49.426;11.182;2023-04-06T01:16:58;-1.00;96.50
11538;DHT22;50159;49.426;11.182;2023-04-06T01:19:27;-1.00;96.50
11538;DHT22;50159;49.426;11.182;2023-04-06T01:21:54;-1.00;96.20
11538;DHT22;50159;49.426;11.182;2023-04-06T01:24:21;-1.10;96.60
11538;DHT22;50159;49.426;11.182;2023-04-06T01:26:48;-1.10;96.90
11538;DHT22;50159;49.426;11.182;2023-04-06T01:29:15;-1.10;97.50
11538;DHT22;50159;49.426;11.182;2023-04-06T01:31:42;-1.10;98.30
11538;DHT22;50159;49.426;11.182;2023-04-06T01:34:09;-1.20;99.10
11538;DHT22;50159;49.426;11.182;2023-04-06T01:36:36;-1.20;99.70
11538;DHT22;50159;49.426;11.182;2023-04-06T01:39:03;-1.20;99.80
11538;DHT22;50159;49.426;11.182;2023-04-06T01:41:30;-1.30;99.80
11538;DHT22;50159;49.426;11.182;2023-04-06T01:43:57;-1.30;99.90
11538;DHT22;50159;49.426;11.182;2023-04-06T01:46:24;-1.30;99.00
11538;DHT22;50159;49.426;11.182;2023-04-06T01:48:51;-1.30;99.00
11538;DHT22;50159;49.426;11.182;2023-04-06T01:51:18;-1.30;99.30
11538;DHT22;50159;49.426;11.182;2023-04-06T01:53:45;-1.30;99.20
11538;DHT22;50159;49.426;11.182;2023-04-06T01:56:12;-1.30;99.30
11538;DHT22;50159;49.426;11.182;2023-04-06T01:58:38;-1.30;98.70
11538;DHT22;50159;49.426;11.182;2023-04-06T02:01:05;-1.30;98.20
11538;DHT22;50159;49.426;11.182;2023-04-06T02:03:33;-1.40;97.60
11538;DHT22;50159;49.426;11.182;2023-04-06T02:05:59;-1.40;97.60
11538;DHT22;50159;49.426;11.182;2023-04-06T02:08:26;-1.40;98.30
11538;DHT22;50159;49.426;11.182;2023-04-06T02:10:53;-1.40;99.20
11538;DHT22;50159;49.426;11.182;2023-04-06T02:13:20;-1.40;99.30
11538;DHT22;50159;49.426;11.182;2023-04-06T02:15:46;-1.40;98.90
11538;DHT22;50159;49.426;11.182;2023-04-06T02:18:13;-1.50;99.20
11538;DHT22;50159;49.426;11.182;2023-04-06T02:20:40;-1.50;99.20
11538;DHT22;50159;49.426;11.182;2023-04-06T02:23:07;-1.50;98.60
11538;DHT22;50159;49.426;11.182;2023-04-06T02:25:34;-1.50;98.00
11538;DHT22;50159;49.426;11.182;2023-04-06T02:28:01;-1.50;97.90
11538;DHT22;50159;49.426;11.182;2023-04-06T02:30:28;-1.60;97.80
11538;DHT22;50159;49.426;11.182;2023-04-06T02:32:55;-1.60;98.50
11538;DHT22;50159;49.426;11.182;2023-04-06T02:35:27;-1.60;98.40
11538;DHT22;50159;49.426;11.182;2023-04-06T02:37:54;-1.60;98.40
11538;DHT22;50159;49.426;11.182;2023-04-06T02:40:21;-1.70;98.20
11538;DHT22;50159;49.426;11.182;2023-04-06T02:42:48;-1.70;98.10
11538;DHT22;50159;49.426;11.182;2023-04-06T02:45:15;-1.80;98.20
11538;DHT22;50159;49.426;11.182;2023-04-06T02:47:42;-1.80;98.70
11538;DHT22;50159;49.426;11.182;2023-04-06T02:50:09;-1.80;99.40
11538;DHT22;50159;49.426;11.182;2023-04-06T02:52:36;-1.80;99.90
11538;DHT22;50159;49.426;11.182;2023-04-06T02:55:03;-1.90;99.60
11538;DHT22;50159;49.426;11.182;2023-04-06T02:57:30;-1.90;99.90
11538;DHT22;50159;49.426;11.182;2023-04-06T02:59:57;-1.90;99.90
11538;DHT22;50159;49.426;11.182;2023-04-06T03:02:24;-1.90;99.90
11538;DHT22;50159;49.426;11.182;2023-04-06T03:04:51;-1.90;99.90
11538;DHT22;50159;49.426;11.182;2023-04-06T03:07:18;-1.90;99.90
11538;DHT22;50159;49.426;11.182;2023-04-06T03:09:45;-1.90;99.70
11538;DHT22;50159;49.426;11.182;2023-04-06T03:12:11;-1.90;99.40
11538;DHT22;50159;49.426;11.182;2023-04-06T03:14:38;-2.00;99.30
11538;DHT22;50159;49.426;11.182;2023-04-06T03:17:05;-2.00;99.90
11538;DHT22;50159;49.426;11.182;2023-04-06T03:19:32;-2.10;99.90
11538;DHT22;50159;49.426;11.182;2023-04-06T03:21:58;-2.10;99.90
11538;DHT22;50159;49.426;11.182;2023-04-06T03:24:25;-2.10;99.90
11538;DHT22;50159;49.426;11.182;2023-04-06T03:26:52;-2.10;99.90
11538;DHT22;50159;49.426;11.182;2023-04-06T03:29:19;-2.00;99.90
11538;DHT22;50159;49.426;11.182;2023-04-06T03:31:46;-2.00;99.90
11538;DHT22;50159;49.426;11.182;2023-04-06T03:34:13;-2.10;99.90
11538;DHT22;50159;49.426;11.182;2023-04-06T03:36:39;-2.10;99.90
11538;DHT22;50159;49.426;11.182;2023-04-06T03:39:06;-2.10;99.90
11538;DHT22;50159;49.426;11.182;2023-04-06T03:41:34;-2.10;99.90
11538;DHT22;50159;49.426;11.182;2023-04-06T03:44:00;-2.10;99.90
11538;DHT22;50159;49.426;11.182;2023-04-06T03:46:27;-2.10;99.90
11538;DHT22;50159;49.426;11.182;2023-04-06T03:48:54;-2.20;99.90
11538;DHT22;50159;49.426;11.182;2023-04-06T03:51:21;-2.20;99.90
11538;DHT22;50159;49.426;11.182;2023-04-06T03:53:48;-2.20;99.90
11538;DHT22;50159;49.426;11.182;2023-04-06T03:56:15;-2.20;99.90
11538;DHT22;50159;49.426;11.182;2023-04-06T03:58:41;-2.20;99.90
11538;DHT22;50159;49.426;11.182;2023-04-06T04:01:11;-2.20;99.90
11538;DHT22;50159;49.426;11.182;2023-04-06T04:03:37;-2.10;99.90
11538;DHT22;50159;49.426;11.182;2023-04-06T04:06:04;-2.10;99.90
11538;DHT22;50159;49.426;11.182;2023-04-06T04:08:32;-2.10;99.90
11538;DHT22;50159;49.426;11.182;2023-04-06T04:10:59;-2.10;99.90
11538;DHT22;50159;49.426;11.182;2023-04-06T04:13:26;-2.10;99.90
11538;DHT22;50159;49.426;11.182;2023-04-06T04:15:53;-2.10;99.90
11538;DHT22;50159;49.426;11.182;2023-04-06T04:18:19;-2.10;99.90
11538;DHT22;50159;49.426;11.182;2023-04-06T04:20:46;-2.20;99.90
11538;DHT22;50159;49.426;11.182;2023-04-06T04:23:13;-2.20;99.90
11538;DHT22;50159;49.426;11.182;2023-04-06T04:25:40;-2.30;99.90
11538;DHT22;50159;49.426;11.182;2023-04-06T04:28:07;-2.30;99.90
11538;DHT22;50159;49.426;11.182;2023-04-06T04:30:34;-2.40;99.90
11538;DHT22;50159;49.426;11.182;2023-04-06T04:33:01;-2.40;99.90
11538;DHT22;50159;49.426;11.182;2023-04-06T04:35:28;-2.40;99.90
11538;DHT22;50159;49.426;11.182;2023-04-06T04:37:56;-2.40;99.90
11538;DHT22;50159;49.426;11.182;2023-04-06T04:40:22;-2.40;99.90
11538;DHT22;50159;49.426;11.182;2023-04-06T04:42:49;-2.40;99.90
11538;DHT22;50159;49.426;11.182;2023-04-06T04:45:17;-2.40;99.90
11538;DHT22;50159;49.426;11.182;2023-04-06T04:47:44;-2.40;99.90
11538;DHT22;50159;49.426;11.182;2023-04-06T04:50:11;-2.40;99.90
11538;DHT22;50159;49.426;11.182;2023-04-06T04:52:38;-2.40;99.90
11538;DHT22;50159;49.426;11.182;2023-04-06T04:55:05;-2.40;99.90
11538;DHT22;50159;49.426;11.182;2023-04-06T04:57:32;-2.40;99.90
11538;DHT22;50159;49.426;11.182;2023-04-06T04:59:58;-2.40;99.90
11538;DHT22;50159;49.426;11.182;2023-04-06T05:02:25;-2.40;99.90
11538;DHT22;50159;49.426;11.182;2023-04-06T05:04:52;-2.40;99.90
11538;DHT22;50159;49.426;11.182;2023-04-06T05:07:19;-2.30;99.90
11538;DHT22;50159;49.426;11.182;2023-04-06T05:09:47;-2.40;99.90
11538;DHT22;50159;49.426;11.182;2023-04-06T05:12:14;-2.40;99.90
11538;DHT22;50159;49.426;11.182;2023-04-06T05:14:41;-2.40;99.90
11538;DHT22;50159;49.426;11.182;2023-04-06T05:17:08;-2.30;99.90
11538;DHT22;50159;49.426;11.182;2023-04-06T05:19:35;-2.30;99.90
11538;DHT22;50159;49.426;11.182;2023-04-06T05:22:02;-2.30;99.90
11538;DHT22;50159;49.426;11.182;2023-04-06T05:24:29;-2.20;99.90
11538;DHT22;50159;49.426;11.182;2023-04-06T05:26:56;-2.20;99.90
11538;DHT22;50159;49.426;11.182;2023-04-06T05:29:23;-2.20;99.90
11538;DHT22;50159;49.426;11.182;2023-04-06T05:31:51;-2.10;99.90
11538;DHT22;50159;49.426;11.182;2023-04-06T05:34:18;-2.00;99.90
11538;DHT22;50159;49.426;11.182;2023-04-06T05:36:44;-1.90;99.90
11538;DHT22;50159;49.426;11.182;2023-04-06T05:39:12;-1.90;99.90
11538;DHT22;50159;49.426;11.182;2023-04-06T05:41:39;-1.80;99.90
11538;DHT22;50159;49.426;11.182;2023-04-06T05:44:06;-1.70;99.90
11538;DHT22;50159;49.426;11.182;2023-04-06T05:46:33;-1.60;99.90
11538;DHT22;50159;49.426;11.182;2023-04-06T05:49:00;-1.50;99.90
11538;DHT22;50159;49.426;11.182;2023-04-06T05:51:26;-1.40;99.90
11538;DHT22;50159;49.426;11.182;2023-04-06T05:53:53;-1.30;99.90
11538;DHT22;50159;49.426;11.182;2023-04-06T05:56:20;-1.10;99.90
11538;DHT22;50159;49.426;11.182;2023-04-06T05:58:47;-1.00;99.90
11538;DHT22;50159;49.426;11.182;2023-04-06T06:01:14;-0.90;99.90
11538;DHT22;50159;49.426;11.182;2023-04-06T06:03:42;-0.80;99.90
11538;DHT22;50159;49.426;11.182;2023-04-06T06:06:09;-0.70;99.90
11538;DHT22;50159;49.426;11.182;2023-04-06T06:08:35;-0.60;99.90
11538;DHT22;50159;49.426;11.182;2023-04-06T06:11:02;-0.40;99.90
11538;DHT22;50159;49.426;11.182;2023-04-06T06:13:29;-0.30;99.90
11538;DHT22;50159;49.426;11.182;2023-04-06T06:15:57;-0.20;99.90
11538;DHT22;50159;49.426;11.182;2023-04-06T06:18:24;0.00;99.90
11538;DHT22;50159;49.426;11.182;2023-04-06T06:20:50;0.10;99.90
11538;DHT22;50159;49.426;11.182;2023-04-06T06:23:17;0.20;99.90
11538;DHT22;50159;49.426;11.182;2023-04-06T06:25:44;0.40;99.90
11538;DHT22;50159;49.426;11.182;2023-04-06T06:28:11;0.50;99.90
11538;DHT22;50159;49.426;11.182;2023-04-06T06:30:38;0.70;99.90
11538;DHT22;50159;49.426;11.182;2023-04-06T06:33:05;0.80;99.90
11538;DHT22;50159;49.426;11.182;2023-04-06T06:35:32;1.00;99.90
11538;DHT22;50159;49.426;11.182;2023-04-06T06:38:00;1.10;99.90
11538;DHT22;50159;49.426;11.182;2023-04-06T06:40:27;1.20;99.90
11538;DHT22;50159;49.426;11.182;2023-04-06T06:42:54;1.40;99.90
11538;DHT22;50159;49.426;11.182;2023-04-06T06:45:21;1.60;99.90
11538;DHT22;50159;49.426;11.182;2023-04-06T06:47:48;1.80;99.90
11538;DHT22;50159;49.426;11.182;2023-04-06T06:50:15;2.00;99.90
11538;DHT22;50159;49.426;11.182;2023-04-06T06:52:42;2.20;99.40
11538;DHT22;50159;49.426;11.182;2023-04-06T06:55:10;2.40;98.60
11538;DHT22;50159;49.426;11.182;2023-04-06T06:57:37;2.60;97.90
11538;DHT22;50159;49.426;11.182;2023-04-06T07:00:06;2.70;96.50
11538;DHT22;50159;49.426;11.182;2023-04-06T07:02:34;2.90;94.40
11538;DHT22;50159;49.426;11.182;2023-04-06T07:05:02;3.10;92.90
11538;DHT22;50159;49.426;11.182;2023-04-06T07:07:42;3.40;91.50
11538;DHT22;50159;49.426;11.182;2023-04-06T07:10:10;3.50;89.80
11538;DHT22;50159;49.426;11.182;2023-04-06T07:12:37;3.70;84.30
11538;DHT22;50159;49.426;11.182;2023-04-06T07:15:04;3.90;81.00
11538;DHT22;50159;49.426;11.182;2023-04-06T07:17:32;4.10;78.90
11538;DHT22;50159;49.426;11.182;2023-04-06T07:19:59;4.30;75.60
11538;DHT22;50159;49.426;11.182;2023-04-06T07:22:25;4.50;71.40
11538;DHT22;50159;49.426;11.182;2023-04-06T07:24:52;4.70;69.80
11538;DHT22;50159;49.426;11.182;2023-04-06T07:27:19;4.80;67.90
11538;DHT22;50159;49.426;11.182;2023-04-06T07:29:46;5.00;66.60
11538;DHT22;50159;49.426;11.182;2023-04-06T07:32:13;5.10;65.10
11538;DHT22;50159;49.426;11.182;2023-04-06T07:34:40;5.30;64.10
11538;DHT22;50159;49.426;11.182;2023-04-06T07:37:07;5.50;63.90
11538;DHT22;50159;49.426;11.182;2023-04-06T07:39:34;5.70;61.60
11538;DHT22;50159;49.426;11.182;2023-04-06T07:42:01;5.80;60.80
11538;DHT22;50159;49.426;11.182;2023-04-06T07:44:28;5.90;59.30
11538;DHT22;50159;49.426;11.182;2023-04-06T07:46:55;6.00;58.20
11538;DHT22;50159;49.426;11.182;2023-04-06T07:49:21;6.10;57.70
11538;DHT22;50159;49.426;11.182;2023-04-06T07:51:49;6.30;56.80
11538;DHT22;50159;49.426;11.182;2023-04-06T07:54:16;6.40;56.50
11538;DHT22;50159;49.426;11.182;2023-04-06T07:56:43;6.50;56.10
11538;DHT22;50159;49.426;11.182;2023-04-06T07:59:10;6.60;55.00
11538;DHT22;50159;49.426;11.182;2023-04-06T08:01:37;6.70;55.20
11538;DHT22;50159;49.426;11.182;2023-04-06T08:04:04;6.80;53.60
11538;DHT22;50159;49.426;11.182;2023-04-06T08:06:32;7.00;53.70
11538;DHT22;50159;49.426;11.182;2023-04-06T08:08:59;7.10;53.80
11538;DHT22;50159;49.426;11.182;2023-04-06T08:11:26;7.20;53.30
11538;DHT22;50159;49.426;11.182;2023-04-06T08:13:54;7.40;52.10
11538;DHT22;50159;49.426;11.182;2023-04-06T08:16:24;7.40;51.60
11538;DHT22;50159;49.426;11.182;2023-04-06T08:18:51;7.40;49.90
11538;DHT22;50159;49.426;11.182;2023-04-06T08:21:18;7.50;50.00
11538;DHT22;50159;49.426;11.182;2023-04-06T08:23:45;7.60;50.50
11538;DHT22;50159;49.426;11.182;2023-04-06T08:26:12;7.70;49.20
11538;DHT22;50159;49.426;11.182;2023-04-06T08:28:39;7.80;48.90
11538;DHT22;50159;49.426;11.182;2023-04-06T08:31:06;8.00;49.10
11538;DHT22;50159;49.426;11.182;2023-04-06T08:33:34;8.00;47.10
11538;DHT22;50159;49.426;11.182;2023-04-06T08:36:13;8.00;46.40
11538;DHT22;50159;49.426;11.182;2023-04-06T08:38:41;8.00;46.10
11538;DHT22;50159;49.426;11.182;2023-04-06T08:41:13;8.20;46.30
11538;DHT22;50159;49.426;11.182;2023-04-06T08:43:53;8.40;47.10
11538;DHT22;50159;49.426;11.182;2023-04-06T08:46:24;8.70;45.90
11538;DHT22;50159;49.426;11.182;2023-04-06T08:48:57;9.00;45.00
11538;DHT22;50159;49.426;11.182;2023-04-06T08:51:25;9.00;43.40
11538;DHT22;50159;49.426;11.182;2023-04-06T08:53:55;9.00;42.30
11538;DHT22;50159;49.426;11.182;2023-04-06T08:56:24;9.10;42.50
11538;DHT22;50159;49.426;11.182;2023-04-06T08:58:55;9.10;42.60
11538;DHT22;50159;49.426;11.182;2023-04-06T09:01:27;9.30;42.10
11538;DHT22;50159;49.426;11.182;2023-04-06T09:03:58;9.30;40.80
11538;DHT22;50159;49.426;11.182;2023-04-06T09:06:27;9.40;41.20
11538;DHT22;50159;49.426;11.182;2023-04-06T09:08:54;9.60;42.00
11538;DHT22;50159;49.426;11.182;2023-04-06T09:11:21;9.70;40.60
11538;DHT22;50159;49.426;11.182;2023-04-06T09:13:51;9.80;40.40
11538;DHT22;50159;49.426;11.182;2023-04-06T09:16:19;9.80;39.90
11538;DHT22;50159;49.426;11.182;2023-04-06T09:18:48;9.80;40.10
11538;DHT22;50159;49.426;11.182;2023-04-06T09:21:19;9.90;39.90
11538;DHT22;50159;49.426;11.182;2023-04-06T09:24:00;9.90;38.90
11538;DHT22;50159;49.426;11.182;2023-04-06T09:26:29;10.00;38.80
11538;DHT22;50159;49.426;11.182;2023-04-06T09:28:59;9.90;37.40
11538;DHT22;50159;49.426;11.182;2023-04-06T09:31:29;9.80;37.60
11538;DHT22;50159;49.426;11.182;2023-04-06T09:34:00;10.00;37.70
11538;DHT22;50159;49.426;11.182;2023-04-06T09:36:35;10.20;36.70
11538;DHT22;50159;49.426;11.182;2023-04-06T09:39:07;10.40;37.50
11538;DHT22;50159;49.426;11.182;2023-04-06T09:41:35;10.70;37.50
11538;DHT22;50159;49.426;11.182;2023-04-06T09:44:04;10.90;37.40
11538;DHT22;50159;49.426;11.182;2023-04-06T09:46:39;11.10;36.90
11538;DHT22;50159;49.426;11.182;2023-04-06T09:49:30;11.40;37.90
11538;DHT22;50159;49.426;11.182;2023-04-06T09:52:02;11.40;37.10
11538;DHT22;50159;49.426;11.182;2023-04-06T09:54:31;11.20;34.20
11538;DHT22;50159;49.426;11.182;2023-04-06T09:57:11;10.70;35.30
11538;DHT22;50159;49.426;11.182;2023-04-06T10:05:46;10.80;36.50
11538;DHT22;50159;49.426;11.182;2023-04-06T10:08:17;11.20;37.50
11538;DHT22;50159;49.426;11.182;2023-04-06T10:10:46;11.40;36.40
11538;DHT22;50159;49.426;11.182;2023-04-06T10:13:13;11.50;34.10
11538;DHT22;50159;49.426;11.182;2023-04-06T10:15:42;11.50;35.70
11538;DHT22;50159;49.426;11.182;2023-04-06T10:18:09;11.90;37.10
11538;DHT22;50159;49.426;11.182;2023-04-06T10:20:41;12.20;37.90
11538;DHT22;50159;49.426;11.182;2023-04-06T10:23:35;12.40;36.30
11538;DHT22;50159;49.426;11.182;2023-04-06T10:26:13;12.20;33.90
11538;DHT22;50159;49.426;11.182;2023-04-06T10:28:42;12.20;34.00
11538;DHT22;50159;49.426;11.182;2023-04-06T10:31:09;12.00;32.10
11538;DHT22;50159;49.426;11.182;2023-04-06T10:33:36;12.00;32.20
11538;DHT22;50159;49.426;11.182;2023-04-06T10:36:14;11.90;33.00
11538;DHT22;50159;49.426;11.182;2023-04-06T10:38:54;12.30;33.90
11538;DHT22;50159;49.426;11.182;2023-04-06T10:41:23;12.60;33.20
11538;DHT22;50159;49.426;11.182;2023-04-06T10:43:56;12.60;30.80
11538;DHT22;50159;49.426;11.182;2023-04-06T10:46:32;12.80;31.70
11538;DHT22;50159;49.426;11.182;2023-04-06T10:49:12;12.80;30.00
11538;DHT22;50159;49.426;11.182;2023-04-06T10:51:39;12.90;31.50
11538;DHT22;50159;49.426;11.182;2023-04-06T10:54:07;13.10;32.90
11538;DHT22;50159;49.426;11.182;2023-04-06T10:56:37;13.20;31.00
11538;DHT22;50159;49.426;11.182;2023-04-06T10:59:05;13.10;30.20
11538;DHT22;50159;49.426;11.182;2023-04-06T11:01:34;13.00;30.40
11538;DHT22;50159;49.426;11.182;2023-04-06T11:04:01;13.20;31.30
11538;DHT22;50159;49.426;11.182;2023-04-06T11:06:29;13.40;31.60
11538;DHT22;50159;49.426;11.182;2023-04-06T11:08:58;13.80;31.20
11538;DHT22;50159;49.426;11.182;2023-04-06T11:11:26;13.80;30.30
11538;DHT22;50159;49.426;11.182;2023-04-06T11:13:55;13.90;29.50
11538;DHT22;50159;49.426;11.182;2023-04-06T11:16:25;13.70;29.50
11538;DHT22;50159;49.426;11.182;2023-04-06T11:19:04;13.60;29.70
11538;DHT22;50159;49.426;11.182;2023-04-06T11:21:47;13.60;29.20
11538;DHT22;50159;49.426;11.182;2023-04-06T11:24:19;13.70;29.40
11538;DHT22;50159;49.426;11.182;2023-04-06T11:26:49;13.50;29.10
11538;DHT22;50159;49.426;11.182;2023-04-06T11:29:25;13.60;28.90
11538;DHT22;50159;49.426;11.182;2023-04-06T11:31:59;13.40;28.10
11538;DHT22;50159;49.426;11.182;2023-04-06T11:34:33;13.50;29.50
11538;DHT22;50159;49.426;11.182;2023-04-06T11:37:10;13.60;28.90
11538;DHT22;50159;49.426;11.182;2023-04-06T11:39:49;13.50;28.70
11538;DHT22;50159;49.426;11.182;2023-04-06T11:42:25;13.50;28.60
11538;DHT22;50159;49.426;11.182;2023-04-06T11:44:57;13.60;30.00
11538;DHT22;50159;49.426;11.182;2023-04-06T11:47:34;13.90;29.40
11538;DHT22;50159;49.426;11.182;2023-04-06T11:50:09;14.30;29.30
11538;DHT22;50159;49.426;11.182;2023-04-06T11:52:42;14.60;28.90
11538;DHT22;50159;49.426;11.182;2023-04-06T11:55:17;15.00;29.50
11538;DHT22;50159;49.426;11.182;2023-04-06T11:57:45;15.30;29.40
11538;DHT22;50159;49.426;11.182;2023-04-06T12:00:12;15.30;28.60
11538;DHT22;50159;49.426;11.182;2023-04-06T12:02:39;15.40;27.90
11538;DHT22;50159;49.426;11.182;2023-04-06T12:05:10;15.30;27.30
11538;DHT22;50159;49.426;11.182;2023-04-06T12:07:37;15.10;27.60
11538;DHT22;50159;49.426;11.182;2023-04-06T12:10:04;15.30;27.40
11538;DHT22;50159;49.426;11.182;2023-04-06T12:12:31;15.00;27.50
11538;DHT22;50159;49.426;11.182;2023-04-06T12:14:58;14.60;28.00
11538;DHT22;50159;49.426;11.182;2023-04-06T12:17:26;14.70;28.20
11538;DHT22;50159;49.426;11.182;2023-04-06T12:19:53;14.60;28.00
11538;DHT22;50159;49.426;11.182;2023-04-06T12:22:19;14.80;29.00
11538;DHT22;50159;49.426;11.182;2023-04-06T12:24:46;15.10;28.50
11538;DHT22;50159;49.426;11.182;2023-04-06T12:27:13;15.30;28.40
11538;DHT22;50159;49.426;11.182;2023-04-06T12:29:40;15.50;28.40
11538;DHT22;50159;49.426;11.182;2023-04-06T12:32:07;15.70;28.30
11538;DHT22;50159;49.426;11.182;2023-04-06T12:34:34;15.90;28.70
11538;DHT22;50159;49.426;11.182;2023-04-06T12:37:01;16.20;28.20
11538;DHT22;50159;49.426;11.182;2023-04-06T12:39:28;16.00;26.80
11538;DHT22;50159;49.426;11.182;2023-04-06T12:41:55;15.90;26.40
11538;DHT22;50159;49.426;11.182;2023-04-06T12:44:23;16.10;27.20
11538;DHT22;50159;49.426;11.182;2023-04-06T12:46:52;16.30;27.60
11538;DHT22;50159;49.426;11.182;2023-04-06T12:49:19;16.40;27.60
11538;DHT22;50159;49.426;11.182;2023-04-06T12:51:46;16.60;26.50
11538;DHT22;50159;49.426;11.182;2023-04-06T12:54:13;16.60;26.20
11538;DHT22;50159;49.426;11.182;2023-04-06T12:56:40;16.40;26.00
11538;DHT22;50159;49.426;11.182;2023-04-06T12:59:07;16.60;27.20
11538;DHT22;50159;49.426;11.182;2023-04-06T13:01:34;16.30;24.60
11538;DHT22;50159;49.426;11.182;2023-04-06T13:04:01;16.10;25.60
11538;DHT22;50159;49.426;11.182;2023-04-06T13:06:28;16.00;25.60
11538;DHT22;50159;49.426;11.182;2023-04-06T13:08:56;15.80;25.40
11538;DHT22;50159;49.426;11.182;2023-04-06T13:11:23;15.60;25.10
11538;DHT22;50159;49.426;11.182;2023-04-06T13:13:54;15.50;27.00
11538;DHT22;50159;49.426;11.182;2023-04-06T13:16:20;15.90;28.20
11538;DHT22;50159;49.426;11.182;2023-04-06T13:18:47;16.20;27.30
11538;DHT22;50159;49.426;11.182;2023-04-06T13:21:15;16.50;27.70
11538;DHT22;50159;49.426;11.182;2023-04-06T13:23:43;16.60;28.00
11538;DHT22;50159;49.426;11.182;2023-04-06T13:26:11;16.80;28.60
11538;DHT22;50159;49.426;11.182;2023-04-06T13:28:39;17.10;27.20
11538;DHT22;50159;49.426;11.182;2023-04-06T13:31:07;17.50;27.40
11538;DHT22;50159;49.426;11.182;2023-04-06T13:33:34;17.60;26.60
11538;DHT22;50159;49.426;11.182;2023-04-06T13:36:02;17.80;27.50
11538;DHT22;50159;49.426;11.182;2023-04-06T13:38:29;17.70;25.70
11538;DHT22;50159;49.426;11.182;2023-04-06T13:40:56;17.70;25.20
11538;DHT22;50159;49.426;11.182;2023-04-06T13:43:24;17.20;24.70
11538;DHT22;50159;49.426;11.182;2023-04-06T13:45:57;16.60;24.50
11538;DHT22;50159;49.426;11.182;2023-04-06T13:48:27;15.60;24.70
11538;DHT22;50159;49.426;11.182;2023-04-06T13:50:53;15.00;26.10
11538;DHT22;50159;49.426;11.182;2023-04-06T13:53:20;14.80;27.40
11538;DHT22;50159;49.426;11.182;2023-04-06T13:55:54;15.40;29.10
11538;DHT22;50159;49.426;11.182;2023-04-06T13:58:22;16.00;27.70
11538;DHT22;50159;49.426;11.182;2023-04-06T14:00:49;16.60;27.40
11538;DHT22;50159;49.426;11.182;2023-04-06T14:03:16;17.20;27.30
11538;DHT22;50159;49.426;11.182;2023-04-06T14:05:43;17.00;25.30
11538;DHT22;50159;49.426;11.182;2023-04-06T14:08:10;16.30;24.90
11538;DHT22;50159;49.426;11.182;2023-04-06T14:10:41;16.00;26.40
11538;DHT22;50159;49.426;11.182;2023-04-06T14:13:09;16.80;27.50
11538;DHT22;50159;49.426;11.182;2023-04-06T14:15:35;17.80;26.60
11538;DHT22;50159;49.426;11.182;2023-04-06T14:18:03;19.10;26.70
11538;DHT22;50159;49.426;11.182;2023-04-06T14:20:33;21.00;24.10
11538;DHT22;50159;49.426;11.182;2023-04-06T14:23:01;23.40;23.40
11538;DHT22;50159;49.426;11.182;2023-04-06T14:25:28;24.70;20.50
11538;DHT22;50159;49.426;11.182;2023-04-06T14:27:57;25.90;20.00
11538;DHT22;50159;49.426;11.182;2023-04-06T14:30:24;27.10;19.20
11538;DHT22;50159;49.426;11.182;2023-04-06T14:32:51;27.90;19.70
11538;DHT22;50159;49.426;11.182;2023-04-06T14:35:18;28.60;17.70
11538;DHT22;50159;49.426;11.182;2023-04-06T14:37:45;28.30;16.50
11538;DHT22;50159;49.426;11.182;2023-04-06T14:40:12;28.10;16.50
11538;DHT22;50159;49.426;11.182;2023-04-06T14:42:38;27.40;16.70
11538;DHT22;50159;49.426;11.182;2023-04-06T14:45:06;27.00;17.40
11538;DHT22;50159;49.426;11.182;2023-04-06T14:47:33;26.50;17.40
11538;DHT22;50159;49.426;11.182;2023-04-06T14:50:00;26.40;18.00
11538;DHT22;50159;49.426;11.182;2023-04-06T14:52:27;26.10;18.60
11538;DHT22;50159;49.426;11.182;2023-04-06T14:54:57;25.60;18.90
11538;DHT22;50159;49.426;11.182;2023-04-06T14:57:24;25.00;18.60
11538;DHT22;50159;49.426;11.182;2023-04-06T14:59:53;24.50;18.70
11538;DHT22;50159;49.426;11.182;2023-04-06T15:02:20;24.10;18.20
11538;DHT22;50159;49.426;11.182;2023-04-06T15:04:47;23.50;17.90
11538;DHT22;50159;49.426;11.182;2023-04-06T15:07:14;23.30;19.70
11538;DHT22;50159;49.426;11.182;2023-04-06T15:09:41;22.90;18.90
11538;DHT22;50159;49.426;11.182;2023-04-06T15:12:08;22.80;19.00
11538;DHT22;50159;49.426;11.182;2023-04-06T15:14:35;22.20;18.20
11538;DHT22;50159;49.426;11.182;2023-04-06T15:17:01;20.40;19.00
11538;DHT22;50159;49.426;11.182;2023-04-06T15:19:28;18.90;21.10
11538;DHT22;50159;49.426;11.182;2023-04-06T15:21:55;17.80;21.90
11538;DHT22;50159;49.426;11.182;2023-04-06T15:24:22;17.60;22.70
11538;DHT22;50159;49.426;11.182;2023-04-06T15:26:48;17.10;22.90
11538;DHT22;50159;49.426;11.182;2023-04-06T15:29:15;16.90;23.60
11538;DHT22;50159;49.426;11.182;2023-04-06T15:31:42;17.80;24.20